Airfield :
LOGIN :

Register | Disclaimer

   EN    FR    IT 

 










Legend :    VFR   Marginal VFR   IFR   Intensive IFR   Very Intensive IFR
Visi :
Ceiling :
>= 8 km
>= 3000ft
5 to 8 km
1000 to 3000 ft
1500m to 5 km
500 to 1000 ft
800 to 1500m
200 to 500 ft
< 800m
< 200 ft
Symbols :   Thunderstorms  Fog  Heavy snow  Heavy precipitations  Wind > 20 kt
SIGMETs :     Misc.  Thunderstorms  Icing  Turbulence  Mountain Waves  Volcanic Ashes







- Airport Elevation : 14 ft
- IATA code : BRE


EDDW - Bremen Neuenland

CURRENT METAR :
  • 230020Z 25003KT CAVOK 16/16 Q1022

EXPIRED METARs :
  • 222350Z 17002KT 6000 NSC 16/16 Q1022
  • 222320Z VRB01KT CAVOK 16/16 Q1022
  • 222250Z 23003KT CAVOK 16/15 Q1022
  • 222220Z 15001KT CAVOK 19/17 Q1022
  • 222150Z 10002KT CAVOK 19/17 Q1022

TAF TAF EDDW
Valid from the 23 at 00:00 until the 24 at 00:00 UTC


222300Z 2300/2324 VRB03KT CAVOK
TEMPO 2300/2305 2000 BCFG
PROB30
TEMPO 2302/2305 0600 FG
BECMG 2306/2309 25005KT
BECMG 2310/2313 31006KT
BECMG 2315/2317 01006KT
BECMG 2320/2323 07005KT
No reported NOTAMs for that airfield.



MET'MAP, your aeronautical weather chart ! - Copyright ORBIFLY December 2007 - Disclaimer

ORBIFLY MET'MAP TEAM :

Programming & Development : Alexandra Zaïnal
Concept & Development : Baudouin d'Aumeries
Co-Development & Prog : Marc-Olivier Méhu
Technical & hardware support : Manuel Goepfert

Contact : metmap@orbifly.com




SOURCES & CREDITS :

   NOAA